Terminal Aerodrome Forecast
Issued by NWS

Home | Current Version | Previous Version | Text Only | Print | Product List | Glossary On
Versions: 1 2 3 4 5 6 7 8 9 10 11 12 13 14 15 16 17 18 19 20 21 22 23 24 25 26 27 28 29 30 31 32 33 34 35 36 37 38
000
FTUS45 KBOU 201356 AAA
TAFBJC
TAF AMD
KBJC 201356Z 2014/2112 11005KT P6SM SCT020 BKN100
     FM201600 VRB05KT P6SM SCT030 SCT100
     FM201800 08007KT P6SM SCT050 BKN090
     FM202100 11008KT P6SM VCSH BKN040 OVC090
      TEMPO 2022/2102 5SM -SN BKN030
     FM210500 16007KT P6SM SCT050 SCT090
     FM210800 23006KT P6SM FEW100=

USA.gov is the U.S. government's official web portal to all federal, state and local government web resources and services.